createdAt,value
2022-11-02T00:01:16.841Z,98425.53
2022-11-02T00:04:22.793Z,98425.66
2022-11-02T00:07:28.503Z,98436.47
2022-11-02T00:10:34.222Z,98432.34
2022-11-02T00:13:39.895Z,98428.88
2022-11-02T00:16:48.347Z,98426.19
2022-11-02T00:19:54.321Z,98433.88
2022-11-02T00:23:06.791Z,98427.72
2022-11-02T00:26:13.376Z,98438.94
2022-11-02T00:29:21.094Z,98436.66
2022-11-02T00:32:29.931Z,98443.28
2022-11-02T00:35:37.758Z,98430.81
2022-11-02T00:38:43.793Z,98438.44
2022-11-02T00:41:49.531Z,98419.94
2022-11-02T00:44:55.398Z,98442.88
2022-11-02T00:48:04.018Z,98440.22
2022-11-02T00:51:09.969Z,98440.19
2022-11-02T00:54:15.926Z,98431.06
2022-11-02T00:57:21.847Z,98431.22
2022-11-02T01:00:27.612Z,98437.16
2022-11-02T01:03:36.048Z,98432.97
2022-11-02T01:06:41.711Z,98434.84
2022-11-02T01:09:47.419Z,98444.91
2022-11-02T01:12:57.337Z,98450.94
2022-11-02T01:16:14.787Z,98452.59
2022-11-02T01:19:24.552Z,98450.91
2022-11-02T01:22:39.005Z,98447.72
2022-11-02T01:25:48.809Z,98450.59
2022-11-02T01:28:59.250Z,98456.31
2022-11-02T01:32:11.137Z,98449.13
2022-11-02T01:35:19.792Z,98441.47
2022-11-02T01:38:25.631Z,98449.13
2022-11-02T01:41:31.518Z,98443.31
2022-11-02T01:44:41.294Z,98442.53
2022-11-02T01:47:52.323Z,98442.50
2022-11-02T01:51:04.394Z,98441.72
2022-11-02T01:54:24.668Z,98435.94
2022-11-02T01:57:34.573Z,98432.59
2022-11-02T02:00:42.208Z,98442.72
2022-11-02T02:03:50.303Z,98434.56
2022-11-02T02:07:08.684Z,98433.94
2022-11-02T02:10:15.558Z,98453.72
2022-11-02T02:13:22.917Z,98446.63
2022-11-02T02:21:01.623Z,98446.31
2022-11-02T02:24:32.261Z,98455.16
2022-11-02T02:28:07.481Z,98454.81
2022-11-02T02:31:25.093Z,98442.66
2022-11-02T02:34:42.115Z,98451.94
2022-11-02T02:37:58.538Z,98448.94
2022-11-02T02:41:17.773Z,98448.56
2022-11-02T02:44:36.237Z,98455.53
2022-11-02T02:47:52.819Z,98452.22
2022-11-02T02:51:08.228Z,98452.25
2022-11-02T02:54:24.670Z,98443.00
2022-11-02T02:57:37.685Z,98442.47
2022-11-02T03:00:48.705Z,98442.34
2022-11-02T03:03:55.474Z,98442.50
2022-11-02T03:07:07.958Z,98448.16
2022-11-02T03:10:25.178Z,98452.94
2022-11-02T03:14:06.514Z,98451.09
2022-11-02T03:17:21.903Z,98457.25
2022-11-02T03:20:47.450Z,98464.75
2022-11-02T03:24:04.944Z,98461.13
2022-11-02T03:27:25.992Z,98468.28
2022-11-02T03:30:45.140Z,98475.75
2022-11-02T03:34:11.608Z,98473.94
2022-11-02T03:37:25.103Z,98475.59
2022-11-02T03:40:42.380Z,98471.13
2022-11-02T03:43:54.814Z,98476.78
2022-11-02T03:47:04.091Z,98463.31
2022-11-02T03:50:21.211Z,98462.00
2022-11-02T03:53:41.942Z,98471.66
2022-11-02T03:56:54.166Z,98474.78
2022-11-02T04:00:11.617Z,98469.63
2022-11-02T04:03:27.081Z,98468.97
2022-11-02T04:06:37.972Z,98478.25
2022-11-02T04:09:44.616Z,98488.56
2022-11-02T04:13:05.660Z,98481.94
2022-11-02T04:16:11.435Z,98477.09
2022-11-02T04:19:36.836Z,98487.22
2022-11-02T04:23:05.529Z,98488.19
2022-11-02T04:26:11.273Z,98487.50
2022-11-02T04:29:21.797Z,98494.84
2022-11-02T04:32:40.617Z,98493.16
2022-11-02T04:35:51.333Z,98493.44
2022-11-02T04:38:58.674Z,98489.75
2022-11-02T04:42:08.925Z,98490.41
2022-11-02T04:45:17.518Z,98492.56
2022-11-02T04:48:23.122Z,98495.41
2022-11-02T04:51:31.757Z,98488.72
2022-11-02T04:54:40.250Z,98493.69
2022-11-02T04:57:48.445Z,98497.72
2022-11-02T05:00:54.393Z,98503.44
2022-11-02T05:04:00.697Z,98502.91
2022-11-02T05:07:11.363Z,98503.75
2022-11-02T05:10:23.613Z,98504.25
2022-11-02T05:13:30.768Z,98497.50
2022-11-02T05:16:38.570Z,98501.31
2022-11-02T05:19:44.587Z,98507.13
2022-11-02T05:22:50.352Z,98508.31
2022-11-02T05:26:03.331Z,98510.63
2022-11-02T05:29:10.901Z,98506.44
2022-11-02T05:32:16.679Z,98510.31
2022-11-02T05:35:22.401Z,98510.50
2022-11-02T05:38:29.828Z,98503.34
2022-11-02T05:41:40.930Z,98513.03
2022-11-02T05:44:46.869Z,98510.53
2022-11-02T05:47:52.846Z,98514.69
2022-11-02T05:51:00.193Z,98509.53
2022-11-02T05:54:18.053Z,98515.16
2022-11-02T05:57:27.052Z,98518.78
2022-11-02T06:00:32.718Z,98520.13
2022-11-02T06:03:41.086Z,98516.66
2022-11-02T06:06:47.324Z,98512.16
2022-11-02T06:09:53.099Z,98510.06
2022-11-02T06:13:06.575Z,98521.13
2022-11-02T06:16:29.010Z,98514.84
2022-11-02T06:19:34.618Z,98523.16
2022-11-02T06:22:44.446Z,98527.00
2022-11-02T06:26:05.218Z,98527.50
2022-11-02T06:29:30.424Z,98524.47
2022-11-02T06:32:50.600Z,98534.75
2022-11-02T06:36:08.783Z,98535.03
2022-11-02T06:39:27.873Z,98535.19
2022-11-02T06:43:03.342Z,98534.81
2022-11-02T06:46:35.716Z,98533.88
2022-11-02T06:49:59.038Z,98536.47
2022-11-02T06:53:04.935Z,98532.91
2022-11-02T06:56:12.641Z,98532.19
2022-11-02T06:59:29.853Z,98530.91
2022-11-02T07:02:38.521Z,98531.03
2022-11-02T07:05:44.251Z,98534.47
2022-11-02T07:08:49.890Z,98524.59
2022-11-02T07:12:13.884Z,98538.91
2022-11-02T07:15:20.280Z,98538.38
2022-11-02T07:18:29.861Z,98550.75
2022-11-02T07:21:35.670Z,98546.72
2022-11-02T07:24:41.453Z,98541.63
2022-11-02T07:27:53.914Z,98547.97
2022-11-02T07:31:07.069Z,98551.66
2022-11-02T07:34:21.283Z,98550.03
2022-11-02T07:37:27.013Z,98549.66
2022-11-02T07:40:35.062Z,98541.75
2022-11-02T07:43:43.277Z,98544.88
2022-11-02T07:47:12.933Z,98546.13
2022-11-02T07:50:29.961Z,98544.34
2022-11-02T07:53:36.570Z,98548.28
2022-11-02T07:56:42.283Z,98536.47
2022-11-02T07:59:47.969Z,98545.94
2022-11-02T08:02:58.247Z,98545.34
2022-11-02T08:06:07.480Z,98539.59
2022-11-02T08:09:13.539Z,98542.97
2022-11-02T08:12:19.277Z,98536.44
2022-11-02T08:15:30.691Z,98538.47
2022-11-02T08:18:36.577Z,98539.91
2022-11-02T08:21:44.831Z,98538.38
2022-11-02T08:24:50.600Z,98550.03
2022-11-02T08:28:01.022Z,98537.97
2022-11-02T08:31:10.345Z,98546.41
2022-11-02T08:34:16.282Z,98546.56
2022-11-02T08:37:24.570Z,98536.94
2022-11-02T08:40:30.972Z,98541.22
2022-11-02T08:43:36.957Z,98545.25
2022-11-02T08:46:44.486Z,98546.47
2022-11-02T08:49:51.900Z,98541.84
2022-11-02T08:53:00.259Z,98538.09
2022-11-02T08:56:10.083Z,98548.81
2022-11-02T08:59:16.021Z,98544.34
2022-11-02T09:02:21.895Z,98533.72
2022-11-02T09:05:27.801Z,98523.97
2022-11-02T09:08:38.032Z,98528.56
2022-11-02T09:11:45.638Z,98524.00
2022-11-02T09:14:51.368Z,98527.03
2022-11-02T09:17:57.364Z,98532.94
2022-11-02T09:21:06.218Z,98527.56
2022-11-02T09:24:14.891Z,98531.06
2022-11-02T09:27:20.546Z,98523.59
2022-11-02T09:30:27.183Z,98520.72
2022-11-02T09:33:34.397Z,98524.78
2022-11-02T09:36:40.150Z,98530.09
2022-11-02T09:39:59.104Z,98531.41
2022-11-02T09:43:21.545Z,98528.13
2022-11-02T09:46:34.180Z,98522.03
2022-11-02T09:49:40.559Z,98527.75
2022-11-02T09:52:53.056Z,98527.16
2022-11-02T09:56:07.999Z,98524.34
2022-11-02T09:59:18.985Z,98518.44
2022-11-02T10:02:55.752Z,98524.16
2022-11-02T10:06:15.840Z,98525.31
2022-11-02T10:09:36.514Z,98527.91
2022-11-02T10:13:08.128Z,98534.84
2022-11-02T10:16:22.611Z,98528.31
2022-11-02T10:19:33.675Z,98520.53
2022-11-02T10:22:45.475Z,98525.09
2022-11-02T10:25:52.359Z,98516.94
2022-11-02T10:29:15.139Z,98517.38
2022-11-02T10:32:21.162Z,98510.94
2022-11-02T10:35:57.689Z,98514.09
2022-11-02T10:39:28.329Z,98510.72
2022-11-02T10:42:58.683Z,98514.97
2022-11-02T10:46:33.115Z,98510.38
2022-11-02T10:50:14.692Z,98510.06
2022-11-02T10:53:40.500Z,98499.19
2022-11-02T10:56:49.642Z,98496.41
2022-11-02T11:00:27.069Z,98497.50
2022-11-02T11:03:35.258Z,98496.41
2022-11-02T11:06:45.565Z,98497.06
2022-11-02T11:09:57.039Z,98500.28
2022-11-02T11:13:03.988Z,98496.31
2022-11-02T11:16:14.788Z,98498.06
2022-11-02T11:19:39.180Z,98499.81
2022-11-02T11:22:45.802Z,98497.91
2022-11-02T11:26:02.133Z,98495.50
2022-11-02T11:29:26.258Z,98492.06
2022-11-02T11:32:35.465Z,98490.44
2022-11-02T11:35:50.121Z,98491.47
2022-11-02T11:39:01.822Z,98495.28
2022-11-02T11:42:18.235Z,98478.63
2022-11-02T11:45:29.166Z,98483.41
2022-11-02T11:48:42.508Z,98485.78
2022-11-02T11:51:55.764Z,98480.81
2022-11-02T11:55:03.548Z,98475.31
2022-11-02T11:58:16.830Z,98475.81
2022-11-02T12:01:25.384Z,98473.63
2022-11-02T12:04:35.163Z,98464.53
2022-11-02T12:08:16.875Z,98471.41
2022-11-02T12:11:42.553Z,98481.13
2022-11-02T12:15:10.356Z,98473.53
2022-11-02T12:18:43.759Z,98471.50
2022-11-02T12:22:09.634Z,98476.28
2022-11-02T12:25:47.365Z,98464.16
2022-11-02T12:29:19.478Z,98456.97
2022-11-02T12:33:01.355Z,98464.44
2022-11-02T12:36:31.203Z,98462.31
2022-11-02T12:40:06.398Z,98456.69
2022-11-02T12:43:39.891Z,98457.19
2022-11-02T12:46:58.989Z,98452.56
2022-11-02T12:50:21.479Z,98454.34
2022-11-02T12:53:45.184Z,98458.78
2022-11-02T12:56:54.768Z,98455.44
2022-11-02T13:00:09.837Z,98449.91
2022-11-02T13:03:38.726Z,98450.69
2022-11-02T13:06:51.583Z,98449.25
2022-11-02T13:10:08.997Z,98460.44
2022-11-02T13:13:21.097Z,98453.63
2022-11-02T13:16:44.220Z,98452.56
2022-11-02T13:19:58.510Z,98455.94
2022-11-02T13:23:20.177Z,98457.28
2022-11-02T13:26:37.901Z,98450.63
2022-11-02T13:29:51.022Z,98453.31
2022-11-02T13:33:07.979Z,98461.44
2022-11-02T13:36:17.475Z,98466.84
2022-11-02T13:39:39.986Z,98461.03
2022-11-02T13:43:38.362Z,98456.34
2022-11-02T13:47:15.322Z,98462.78
2022-11-02T13:50:29.257Z,98467.72
2022-11-02T13:53:43.897Z,98463.13
2022-11-02T13:56:55.403Z,98464.59
2022-11-02T14:00:01.763Z,98467.94
2022-11-02T14:03:21.326Z,98463.00
2022-11-02T14:06:29.995Z,98465.31
2022-11-02T14:09:43.137Z,98462.81
2022-11-02T14:12:51.259Z,98463.59
2022-11-02T14:15:56.984Z,98464.44
2022-11-02T14:19:28.290Z,98455.34
2022-11-02T14:22:36.441Z,98460.75
2022-11-02T14:25:51.311Z,98471.09
2022-11-02T14:28:56.959Z,98463.84
2022-11-02T14:32:20.543Z,98469.03
2022-11-02T14:35:44.269Z,98462.22
2022-11-02T14:39:11.271Z,98472.03
2022-11-02T14:42:49.968Z,98471.19
2022-11-02T14:46:21.377Z,98467.84
2022-11-02T14:49:34.036Z,98464.25
2022-11-02T14:52:41.511Z,98466.09
2022-11-02T14:55:58.579Z,98468.56
2022-11-02T14:59:04.963Z,98477.19
2022-11-02T15:02:26.396Z,98481.56
2022-11-02T15:05:38.931Z,98482.53
2022-11-02T15:08:56.024Z,98482.41
2022-11-02T15:12:23.373Z,98482.25
2022-11-02T15:15:35.876Z,98487.75
2022-11-02T15:18:42.654Z,98495.81
2022-11-02T15:21:49.024Z,98501.69
2022-11-02T15:24:59.685Z,98508.69
2022-11-02T15:28:31.172Z,98511.88
2022-11-02T15:31:59.944Z,98524.09
2022-11-02T15:35:06.982Z,98527.97
2022-11-02T15:38:19.959Z,98530.22
2022-11-02T15:41:41.682Z,98528.50
2022-11-02T15:45:46.852Z,98526.94
2022-11-02T15:49:06.706Z,98533.50
2022-11-02T15:53:01.621Z,98538.47
2022-11-02T15:56:29.872Z,98544.72
2022-11-02T16:00:07.087Z,98544.09
2022-11-02T16:03:21.605Z,98542.03
2022-11-02T16:06:31.955Z,98550.53
2022-11-02T16:09:41.355Z,98547.31
2022-11-02T16:12:47.104Z,98551.75
2022-11-02T16:16:04.510Z,98560.78
2022-11-02T16:19:23.589Z,98560.16
2022-11-02T16:22:30.739Z,98562.97
2022-11-02T16:25:40.976Z,98557.81
2022-11-02T16:28:54.179Z,98568.44
2022-11-02T16:32:00.158Z,98565.78
2022-11-02T16:35:19.867Z,98566.44
2022-11-02T16:38:27.284Z,98574.19
2022-11-02T16:41:38.987Z,98578.97
2022-11-02T16:47:55.164Z,98587.38
2022-11-02T16:51:19.308Z,98584.31
2022-11-02T16:54:44.153Z,98585.34
2022-11-02T16:57:49.832Z,98587.47
2022-11-02T17:01:06.324Z,98588.13
2022-11-02T17:04:24.625Z,98591.78
2022-11-02T17:07:39.172Z,98593.28
2022-11-02T17:10:47.746Z,98591.78
2022-11-02T17:14:00.219Z,98590.59
2022-11-02T17:17:38.329Z,98606.19
2022-11-02T17:20:44.115Z,98603.22
2022-11-02T17:23:54.098Z,98604.91
2022-11-02T17:27:20.963Z,98602.25
2022-11-02T17:30:52.779Z,98610.72
2022-11-02T17:34:09.311Z,98615.50
2022-11-02T17:37:27.590Z,98616.78
2022-11-02T17:40:35.744Z,98614.47
2022-11-02T17:43:41.295Z,98609.38
2022-11-02T17:46:46.943Z,98611.69
2022-11-02T17:49:52.465Z,98609.53
2022-11-02T17:52:59.837Z,98608.06
2022-11-02T17:56:08.829Z,98615.78
2022-11-02T17:59:17.206Z,98621.66
2022-11-02T18:02:22.831Z,98623.69
2022-11-02T18:05:31.679Z,98620.72
2022-11-02T18:08:58.146Z,98616.91
2022-11-02T18:12:06.746Z,98611.56
2022-11-02T18:15:23.380Z,98619.91
2022-11-02T18:18:28.961Z,98606.56
2022-11-02T18:21:34.451Z,98608.59
2022-11-02T18:24:40.845Z,98624.50
2022-11-02T18:27:50.273Z,98628.50
2022-11-02T18:30:57.027Z,98631.19
2022-11-02T18:34:02.687Z,98640.88
2022-11-02T18:37:08.309Z,98640.56
2022-11-02T18:40:17.848Z,98633.38
2022-11-02T18:43:26.051Z,98630.56
2022-11-02T18:46:32.536Z,98638.06
2022-11-02T18:49:38.174Z,98642.28
2022-11-02T18:52:51.864Z,98639.81
2022-11-02T18:55:57.643Z,98645.81
2022-11-02T18:59:06.744Z,98649.88
2022-11-02T19:02:14.706Z,98646.41
2022-11-02T19:05:33.230Z,98651.97
2022-11-02T19:08:51.095Z,98662.63
2022-11-02T19:12:05.934Z,98661.31
2022-11-02T19:15:14.326Z,98660.78
2022-11-02T19:18:19.928Z,98659.63
2022-11-02T19:21:25.618Z,98660.63
2022-11-02T19:24:32.033Z,98664.44
2022-11-02T19:27:37.711Z,98672.88
2022-11-02T19:30:45.890Z,98661.84
2022-11-02T19:34:01.242Z,98668.50
2022-11-02T19:37:14.892Z,98674.16
2022-11-02T19:40:20.820Z,98684.81
2022-11-02T19:43:26.626Z,98691.28
2022-11-02T19:46:35.339Z,98688.09
2022-11-02T19:49:41.319Z,98682.75
2022-11-02T19:52:51.188Z,98696.63
2022-11-02T19:55:58.919Z,98696.28
2022-11-02T19:59:06.151Z,98695.38
2022-11-02T20:02:15.263Z,98688.56
2022-11-02T20:05:32.624Z,98698.47
2022-11-02T20:08:39.129Z,98697.81
2022-11-02T20:11:45.679Z,98703.50
2022-11-02T20:14:51.279Z,98709.06
2022-11-02T20:18:18.292Z,98703.91
2022-11-02T20:21:32.359Z,98699.94
2022-11-02T20:24:39.972Z,98700.09
2022-11-02T20:27:45.779Z,98709.31
2022-11-02T20:30:51.491Z,98702.69
2022-11-02T20:33:59.752Z,98697.72
2022-11-02T20:37:06.747Z,98693.53
2022-11-02T20:40:16.086Z,98695.03
2022-11-02T20:43:22.240Z,98701.88
2022-11-02T20:46:37.528Z,98701.34
2022-11-02T20:49:50.959Z,98702.03
2022-11-02T20:52:58.826Z,98695.34
2022-11-02T20:56:17.283Z,98692.53
2022-11-02T20:59:36.549Z,98697.34
2022-11-02T21:02:42.030Z,98701.50
2022-11-02T21:05:52.736Z,98703.63
2022-11-02T21:09:09.160Z,98707.31
2022-11-02T21:12:34.020Z,98705.31
2022-11-02T21:15:39.810Z,98695.00
2022-11-02T21:18:45.652Z,98708.94
2022-11-02T21:21:59.411Z,98719.72
2022-11-02T21:25:10.468Z,98712.84
2022-11-02T21:28:16.165Z,98717.66
2022-11-02T21:31:26.282Z,98720.81
2022-11-02T21:34:31.865Z,98720.50
2022-11-02T21:37:40.083Z,98712.91
2022-11-02T21:40:48.552Z,98722.69
2022-11-02T21:43:55.752Z,98719.16
2022-11-02T21:47:01.411Z,98717.16
2022-11-02T21:50:10.572Z,98714.19
2022-11-02T21:53:18.830Z,98715.56
2022-11-02T21:56:34.320Z,98709.25
2022-11-02T21:59:39.865Z,98711.63
2022-11-02T22:02:42.920Z,98708.97
2022-11-02T22:05:59.728Z,98702.50
2022-11-02T22:09:11.035Z,98699.84
2022-11-02T22:12:29.026Z,98703.72
2022-11-02T22:15:37.483Z,98698.31
2022-11-02T22:18:45.781Z,98707.47
2022-11-02T22:21:51.609Z,98708.16
2022-11-02T22:25:00.280Z,98713.50
2022-11-02T22:28:06.340Z,98720.69
2022-11-02T22:31:16.242Z,98716.84
2022-11-02T22:34:22.053Z,98735.63
2022-11-02T22:37:40.249Z,98740.13
2022-11-02T22:40:48.721Z,98732.16
2022-11-02T22:43:57.966Z,98739.63
2022-11-02T22:47:03.970Z,98737.97
2022-11-02T22:50:11.277Z,98737.47
2022-11-02T22:53:17.041Z,98746.13
2022-11-02T22:56:27.447Z,98754.63
2022-11-02T22:59:33.331Z,98739.13
2022-11-02T23:02:39.283Z,98733.47
2022-11-02T23:05:46.320Z,98735.31
2022-11-02T23:08:54.584Z,98736.00
2022-11-02T23:12:03.223Z,98737.97
2022-11-02T23:15:09.991Z,98727.16
2022-11-02T23:18:15.901Z,98729.50
2022-11-02T23:21:19.005Z,98727.19
2022-11-02T23:24:37.209Z,98734.84
2022-11-02T23:28:00.884Z,98736.81
2022-11-02T23:31:18.896Z,98738.78
2022-11-02T23:34:24.460Z,98745.81
2022-11-02T23:37:27.555Z,98736.13
2022-11-02T23:40:33.707Z,98745.47
2022-11-02T23:43:42.446Z,98750.59
2022-11-02T23:46:51.376Z,98750.75
2022-11-02T23:49:56.967Z,98747.91
2022-11-02T23:53:15.011Z,98752.06
2022-11-02T23:56:47.200Z,98749.69
2022-11-02T23:59:55.660Z,98753.38
